createdAt,value
2022-12-26T00:00:37.532Z,69.90
2022-12-26T00:01:37.420Z,78.60
2022-12-26T00:02:37.468Z,73.80
2022-12-26T00:03:37.675Z,67.10
2022-12-26T00:04:50.679Z,67.80
2022-12-26T00:05:38.418Z,69.80
2022-12-26T00:06:37.398Z,73.10
2022-12-26T00:07:37.377Z,72.40
2022-12-26T00:08:37.395Z,63.70
2022-12-26T00:09:37.379Z,66.70
2022-12-26T00:10:37.390Z,78.60
2022-12-26T00:11:37.368Z,85.60
2022-12-26T00:12:37.367Z,81.30
2022-12-26T00:13:41.302Z,105.30
2022-12-26T00:14:37.361Z,114.00
2022-12-26T00:15:37.380Z,113.40
2022-12-26T00:16:37.419Z,90.90
2022-12-26T00:17:37.358Z,86.20
2022-12-26T00:18:37.348Z,90.70
2022-12-26T00:19:37.351Z,93.50
2022-12-26T00:20:37.357Z,82.60
2022-12-26T00:21:37.351Z,71.40
2022-12-26T00:22:37.338Z,84.10
2022-12-26T00:23:37.391Z,118.50
2022-12-26T00:24:37.319Z,112.00
2022-12-26T00:25:37.331Z,132.90
2022-12-26T00:26:37.323Z,120.10
2022-12-26T00:27:37.321Z,129.30
2022-12-26T00:28:37.319Z,137.40
2022-12-26T00:29:37.302Z,136.20
2022-12-26T00:30:37.308Z,117.00
2022-12-26T00:31:37.290Z,118.30
2022-12-26T00:32:37.272Z,119.40
2022-12-26T00:33:37.256Z,122.50
2022-12-26T00:34:37.233Z,87.70
2022-12-26T00:35:37.222Z,121.20
2022-12-26T00:36:37.215Z,121.60
2022-12-26T00:37:37.208Z,97.80
2022-12-26T00:38:37.196Z,75.40
2022-12-26T00:39:37.180Z,95.70
2022-12-26T00:40:37.163Z,96.90
2022-12-26T00:41:37.187Z,117.40
2022-12-26T00:42:37.153Z,128.90
2022-12-26T00:43:37.134Z,122.40
2022-12-26T00:44:37.126Z,115.40
2022-12-26T00:45:37.110Z,117.60
2022-12-26T00:46:37.127Z,124.60
2022-12-26T00:47:37.112Z,123.40
2022-12-26T00:48:37.065Z,117.00
2022-12-26T00:50:13.728Z,114.10
2022-12-26T00:50:38.027Z,96.10
2022-12-26T00:51:37.028Z,108.80
2022-12-26T00:52:37.029Z,86.00
2022-12-26T00:53:36.998Z,36.70
2022-12-26T00:54:36.965Z,37.70
2022-12-26T00:55:36.947Z,39.00
2022-12-26T00:56:36.927Z,42.70
2022-12-26T00:57:36.907Z,35.40
2022-12-26T00:58:36.917Z,30.90
2022-12-26T00:59:36.851Z,33.70
2022-12-26T01:00:36.853Z,29.70
2022-12-26T01:01:36.906Z,30.70
2022-12-26T01:02:36.922Z,28.10
2022-12-26T01:03:36.781Z,27.20
2022-12-26T01:04:36.748Z,27.50
2022-12-26T01:05:36.710Z,32.10
2022-12-26T01:06:36.699Z,23.40
2022-12-26T01:08:22.442Z,27.90
2022-12-26T01:08:37.649Z,27.00
2022-12-26T01:09:36.611Z,25.30
2022-12-26T01:10:36.579Z,28.30
2022-12-26T01:11:36.574Z,25.30
2022-12-26T01:12:36.513Z,22.30
2022-12-26T01:13:36.502Z,22.30
2022-12-26T01:14:36.471Z,22.40
2022-12-26T01:15:36.436Z,22.20
2022-12-26T01:16:36.418Z,21.20
2022-12-26T01:17:36.364Z,22.60
2022-12-26T01:18:36.371Z,26.80
2022-12-26T01:19:36.317Z,22.20
2022-12-26T01:20:36.275Z,23.20
2022-12-26T01:21:36.234Z,21.20
2022-12-26T01:22:36.195Z,22.60
2022-12-26T01:23:36.168Z,21.90
2022-12-26T01:24:36.143Z,23.00
2022-12-26T01:25:36.105Z,25.60
2022-12-26T01:26:37.057Z,20.30
2022-12-26T01:27:36.024Z,26.20
2022-12-26T01:28:36.002Z,27.40
2022-12-26T01:29:35.974Z,21.80
2022-12-26T01:30:35.937Z,28.60
2022-12-26T01:31:35.927Z,30.00
2022-12-26T01:32:35.858Z,37.70
2022-12-26T01:33:35.834Z,32.50
2022-12-26T01:34:35.785Z,34.70
2022-12-26T01:35:35.767Z,32.20
2022-12-26T01:36:35.749Z,39.10
2022-12-26T01:37:35.695Z,39.00
2022-12-26T01:38:35.649Z,43.60
2022-12-26T01:39:35.630Z,40.90
2022-12-26T01:40:35.625Z,45.90
2022-12-26T01:41:35.587Z,38.60
2022-12-26T01:42:35.545Z,46.00
2022-12-26T01:43:35.488Z,44.40
2022-12-26T01:44:35.461Z,46.60
2022-12-26T01:45:35.494Z,45.50
2022-12-26T01:46:35.419Z,53.50
2022-12-26T01:47:35.370Z,47.50
2022-12-26T01:48:35.343Z,50.70
2022-12-26T01:49:35.300Z,44.60
2022-12-26T01:50:35.266Z,49.40
2022-12-26T01:51:35.249Z,56.50
2022-12-26T01:52:35.197Z,45.40
2022-12-26T01:53:35.162Z,44.20
2022-12-26T01:54:40.857Z,52.50
2022-12-26T01:55:36.102Z,59.00
2022-12-26T01:56:35.072Z,48.40
2022-12-26T01:57:35.095Z,51.10
2022-12-26T01:58:35.017Z,56.20
2022-12-26T01:59:34.984Z,47.20
2022-12-26T02:00:35.063Z,42.00
2022-12-26T02:01:35.016Z,44.30
2022-12-26T02:02:35.082Z,44.00
2022-12-26T02:03:34.880Z,46.20
2022-12-26T02:04:34.833Z,41.30
2022-12-26T02:05:34.871Z,39.50
2022-12-26T02:06:34.800Z,36.00
2022-12-26T02:07:34.769Z,34.70
2022-12-26T02:08:34.745Z,35.40
2022-12-26T02:09:34.718Z,31.00
2022-12-26T02:10:34.699Z,35.60
2022-12-26T02:11:34.690Z,34.90
2022-12-26T02:12:38.493Z,32.70
2022-12-26T02:13:34.635Z,31.70
2022-12-26T02:14:34.586Z,31.70
2022-12-26T02:15:34.568Z,32.60
2022-12-26T02:16:34.600Z,31.30
2022-12-26T02:17:34.515Z,31.80
2022-12-26T02:18:34.477Z,35.30
2022-12-26T02:19:34.444Z,32.40
2022-12-26T02:20:34.394Z,33.50
2022-12-26T02:21:34.363Z,39.60
2022-12-26T02:22:34.337Z,33.80
2022-12-26T02:23:34.297Z,32.20
2022-12-26T02:24:34.275Z,43.20
2022-12-26T02:25:34.260Z,36.50
2022-12-26T02:26:34.215Z,31.40
2022-12-26T02:27:34.176Z,31.40
2022-12-26T02:28:34.161Z,30.80
2022-12-26T02:29:34.136Z,36.00
2022-12-26T02:30:34.104Z,33.20
2022-12-26T02:31:34.093Z,30.10
2022-12-26T02:32:34.037Z,33.40
2022-12-26T02:33:33.996Z,28.30
2022-12-26T02:34:33.986Z,33.30
2022-12-26T02:35:33.927Z,32.40
2022-12-26T02:36:33.909Z,30.40
2022-12-26T02:37:33.881Z,31.30
2022-12-26T02:38:33.849Z,29.80
2022-12-26T02:39:45.016Z,28.30
2022-12-26T02:40:34.796Z,27.20
2022-12-26T02:41:33.739Z,24.80
2022-12-26T02:42:33.710Z,31.60
2022-12-26T02:43:33.688Z,34.30
2022-12-26T02:44:33.653Z,30.60
2022-12-26T02:45:33.668Z,32.20
2022-12-26T02:46:33.635Z,37.10
2022-12-26T02:47:33.572Z,28.20
2022-12-26T02:48:33.529Z,32.40
2022-12-26T02:49:33.489Z,31.00
2022-12-26T02:50:33.482Z,31.80
2022-12-26T02:51:33.421Z,33.40
2022-12-26T02:52:33.412Z,34.60
2022-12-26T02:53:33.387Z,31.20
2022-12-26T02:54:33.352Z,32.20
2022-12-26T02:55:33.345Z,27.30
2022-12-26T02:56:33.304Z,28.50
2022-12-26T02:57:33.279Z,32.20
2022-12-26T02:58:33.244Z,30.10
2022-12-26T02:59:55.842Z,27.10
2022-12-26T03:00:34.200Z,32.10
2022-12-26T03:01:33.243Z,28.30
2022-12-26T03:02:33.285Z,29.20
2022-12-26T03:03:33.141Z,31.10
2022-12-26T03:04:33.082Z,23.70
2022-12-26T03:05:33.060Z,26.70
2022-12-26T03:06:33.048Z,25.50
2022-12-26T03:07:33.010Z,23.50
2022-12-26T03:08:32.995Z,21.70
2022-12-26T03:09:32.936Z,27.30
2022-12-26T03:10:32.915Z,26.20
2022-12-26T03:11:32.894Z,20.70
2022-12-26T03:12:32.864Z,18.40
2022-12-26T03:13:32.817Z,19.80
2022-12-26T03:14:32.830Z,22.70
2022-12-26T03:15:32.756Z,21.10
2022-12-26T03:16:32.783Z,19.40
2022-12-26T03:17:32.687Z,24.30
2022-12-26T03:18:57.705Z,17.20
2022-12-26T03:19:33.635Z,21.70
2022-12-26T03:20:32.590Z,21.00
2022-12-26T03:21:32.606Z,21.10
2022-12-26T03:22:32.547Z,22.80
2022-12-26T03:23:32.495Z,22.80
2022-12-26T03:24:32.479Z,18.10
2022-12-26T03:25:32.442Z,24.00
2022-12-26T03:26:32.410Z,21.90
2022-12-26T03:27:32.382Z,18.90
2022-12-26T03:28:32.352Z,21.10
2022-12-26T03:29:32.311Z,21.70
2022-12-26T03:30:32.368Z,25.10
2022-12-26T03:31:32.240Z,21.30
2022-12-26T03:32:32.201Z,22.20
2022-12-26T03:33:32.182Z,21.10
2022-12-26T03:34:32.140Z,21.20
2022-12-26T03:35:32.100Z,22.00
2022-12-26T03:36:32.053Z,25.50
2022-12-26T03:37:49.623Z,22.70
2022-12-26T03:38:33.020Z,19.60
2022-12-26T03:39:31.949Z,21.80
2022-12-26T03:40:31.903Z,22.60
2022-12-26T03:41:31.866Z,24.20
2022-12-26T03:42:31.833Z,26.50
2022-12-26T03:43:31.810Z,20.70
2022-12-26T03:44:31.783Z,21.30
2022-12-26T03:45:31.725Z,20.00
2022-12-26T03:46:31.715Z,19.90
2022-12-26T03:47:31.668Z,22.20
2022-12-26T03:48:31.636Z,22.10
2022-12-26T03:49:31.587Z,21.40
2022-12-26T03:50:31.555Z,23.50
2022-12-26T03:51:31.515Z,22.00
2022-12-26T03:52:31.476Z,19.80
2022-12-26T03:53:31.436Z,23.30
2022-12-26T03:54:31.416Z,19.20
2022-12-26T03:55:31.384Z,22.10
2022-12-26T03:56:32.850Z,21.30
2022-12-26T03:57:31.296Z,23.90
2022-12-26T03:58:31.247Z,23.20
2022-12-26T03:59:31.308Z,21.40
2022-12-26T04:00:31.158Z,22.70
2022-12-26T04:01:31.238Z,21.50
2022-12-26T04:02:31.291Z,21.70
2022-12-26T04:03:31.075Z,22.20
2022-12-26T04:04:31.028Z,25.20
2022-12-26T04:05:30.984Z,20.80
2022-12-26T04:06:30.939Z,24.40
2022-12-26T04:07:30.904Z,22.10
2022-12-26T04:08:30.886Z,21.90
2022-12-26T04:09:30.862Z,21.80
2022-12-26T04:10:30.821Z,20.70
2022-12-26T04:11:30.770Z,20.30
2022-12-26T04:12:30.738Z,23.30
2022-12-26T04:13:30.700Z,22.00
2022-12-26T04:14:30.663Z,21.10
2022-12-26T04:15:30.699Z,21.90
2022-12-26T04:16:30.591Z,22.00
2022-12-26T04:17:30.560Z,23.70
2022-12-26T04:18:30.527Z,21.90
2022-12-26T04:19:30.492Z,24.00
2022-12-26T04:20:30.472Z,19.40
2022-12-26T04:21:30.436Z,25.20
2022-12-26T04:22:30.381Z,23.80
2022-12-26T04:23:30.353Z,24.70
2022-12-26T04:24:30.325Z,22.60
2022-12-26T04:25:50.816Z,23.60
2022-12-26T04:26:31.252Z,28.30
2022-12-26T04:27:30.204Z,25.00
2022-12-26T04:28:30.159Z,30.90
2022-12-26T04:29:30.131Z,31.30
2022-12-26T04:30:30.179Z,39.60
2022-12-26T04:31:30.129Z,32.50
2022-12-26T04:32:30.029Z,31.20
2022-12-26T04:33:29.978Z,40.60
2022-12-26T04:34:29.948Z,35.80
2022-12-26T04:35:29.896Z,39.80
2022-12-26T04:36:29.876Z,37.40
2022-12-26T04:37:29.835Z,34.50
2022-12-26T04:38:29.795Z,39.70
2022-12-26T04:39:29.776Z,37.50
2022-12-26T04:40:29.717Z,40.00
2022-12-26T04:41:29.685Z,36.30
2022-12-26T04:42:29.628Z,41.20
2022-12-26T04:43:48.112Z,40.70
2022-12-26T04:44:30.547Z,36.80
2022-12-26T04:45:29.518Z,41.80
2022-12-26T04:46:29.524Z,46.60
2022-12-26T04:47:29.449Z,40.00
2022-12-26T04:48:29.420Z,40.90
2022-12-26T04:49:29.369Z,42.70
2022-12-26T04:50:29.324Z,39.30
2022-12-26T04:51:29.303Z,47.00
2022-12-26T04:52:29.270Z,46.80
2022-12-26T04:53:29.230Z,31.60
2022-12-26T04:54:29.208Z,43.80
2022-12-26T04:55:29.171Z,44.10
2022-12-26T04:56:29.153Z,48.30
2022-12-26T04:57:29.144Z,46.90
2022-12-26T04:58:29.078Z,47.00
2022-12-26T04:59:29.048Z,50.80
2022-12-26T05:00:29.028Z,51.00
2022-12-26T05:01:29.057Z,56.30
2022-12-26T05:02:29.133Z,50.30
2022-12-26T05:03:28.955Z,48.10
2022-12-26T05:04:28.860Z,51.40
2022-12-26T05:05:28.837Z,54.90
2022-12-26T05:06:28.794Z,50.00
2022-12-26T05:07:28.780Z,47.50
2022-12-26T05:08:28.723Z,55.80
2022-12-26T05:09:28.702Z,51.20
2022-12-26T05:10:28.660Z,49.50
2022-12-26T05:11:28.624Z,52.10
2022-12-26T05:12:28.612Z,58.10
2022-12-26T05:13:28.544Z,46.60
2022-12-26T05:14:28.515Z,54.30
2022-12-26T05:15:28.485Z,53.30
2022-12-26T05:16:28.499Z,60.10
2022-12-26T05:17:28.425Z,57.70
2022-12-26T05:18:28.396Z,54.00
2022-12-26T05:19:28.364Z,52.60
2022-12-26T05:20:28.336Z,47.80
2022-12-26T05:21:28.296Z,48.50
2022-12-26T05:22:28.259Z,49.60
2022-12-26T05:23:28.241Z,58.10
2022-12-26T05:24:28.221Z,49.50
2022-12-26T05:25:28.156Z,53.40
2022-12-26T05:26:28.124Z,51.00
2022-12-26T05:27:28.098Z,48.50
2022-12-26T05:28:28.064Z,51.60
2022-12-26T05:29:28.026Z,54.40
2022-12-26T05:30:27.997Z,52.00
2022-12-26T05:31:34.680Z,53.50
2022-12-26T05:32:28.917Z,49.50
2022-12-26T05:33:27.882Z,49.80
2022-12-26T05:34:27.866Z,46.60
2022-12-26T05:35:27.809Z,48.70
2022-12-26T05:36:27.766Z,50.70
2022-12-26T05:37:27.739Z,48.00
2022-12-26T05:38:27.689Z,51.30
2022-12-26T05:39:27.683Z,56.90
2022-12-26T05:40:27.626Z,48.20
2022-12-26T05:41:27.588Z,46.20
2022-12-26T05:42:27.541Z,43.30
2022-12-26T05:43:27.515Z,51.20
2022-12-26T05:44:27.482Z,49.80
2022-12-26T05:45:27.437Z,51.20
2022-12-26T05:46:27.452Z,46.60
2022-12-26T05:47:27.351Z,54.20
2022-12-26T05:48:27.291Z,51.50
2022-12-26T05:49:27.274Z,46.90
2022-12-26T05:50:27.220Z,47.50
2022-12-26T05:51:27.174Z,44.50
2022-12-26T05:52:27.121Z,47.10
2022-12-26T05:53:27.080Z,44.30
2022-12-26T05:54:27.021Z,52.60
2022-12-26T05:55:26.991Z,42.70
2022-12-26T05:56:26.923Z,54.70
2022-12-26T05:57:26.897Z,47.50
2022-12-26T05:58:26.832Z,49.70
2022-12-26T05:59:26.803Z,47.20
2022-12-26T06:00:26.775Z,51.80
2022-12-26T06:01:26.740Z,45.90
2022-12-26T06:02:26.700Z,54.80
2022-12-26T06:03:26.721Z,49.00
2022-12-26T06:04:26.565Z,42.80
2022-12-26T06:05:26.525Z,48.40
2022-12-26T06:06:26.479Z,49.90
2022-12-26T06:07:26.426Z,41.90
2022-12-26T06:08:26.366Z,43.70
2022-12-26T06:09:26.326Z,46.10
2022-12-26T06:10:26.308Z,49.70
2022-12-26T06:11:26.242Z,51.00
2022-12-26T06:12:26.195Z,49.80
2022-12-26T06:13:26.147Z,44.60
2022-12-26T06:14:26.105Z,47.50
2022-12-26T06:15:26.062Z,44.40
2022-12-26T06:16:26.129Z,45.30
2022-12-26T06:17:25.988Z,46.70
2022-12-26T06:18:25.930Z,52.50
2022-12-26T06:19:25.889Z,45.70
2022-12-26T06:20:25.839Z,39.30
2022-12-26T06:21:25.822Z,43.00
2022-12-26T06:22:25.765Z,49.50
2022-12-26T06:23:25.708Z,51.50
2022-12-26T06:24:25.662Z,40.90
2022-12-26T06:25:25.623Z,45.20
2022-12-26T06:26:25.595Z,41.30
2022-12-26T06:27:25.539Z,48.20
2022-12-26T06:28:25.483Z,45.90
2022-12-26T06:29:25.443Z,47.90
2022-12-26T06:30:25.403Z,44.10
2022-12-26T06:31:25.423Z,44.60
2022-12-26T06:32:25.317Z,36.70
2022-12-26T06:33:25.253Z,44.00
2022-12-26T06:34:25.203Z,45.20
2022-12-26T06:35:25.161Z,42.30
2022-12-26T06:36:25.113Z,42.40
2022-12-26T06:37:25.107Z,42.50
2022-12-26T06:38:25.025Z,43.70
2022-12-26T06:39:24.997Z,40.10
2022-12-26T06:40:24.936Z,41.50
2022-12-26T06:41:24.897Z,51.80
2022-12-26T06:42:24.837Z,48.50
2022-12-26T06:43:24.807Z,45.20
2022-12-26T06:44:24.735Z,35.40
2022-12-26T06:45:24.698Z,44.20
2022-12-26T06:46:24.690Z,36.70
2022-12-26T06:47:24.616Z,41.70
2022-12-26T06:48:24.586Z,41.70
2022-12-26T06:49:30.414Z,37.40
2022-12-26T06:50:25.501Z,38.10
2022-12-26T06:51:24.444Z,35.40
2022-12-26T06:52:24.446Z,40.80
2022-12-26T06:53:24.386Z,38.30
2022-12-26T06:54:24.348Z,37.20
2022-12-26T06:55:24.308Z,39.50
2022-12-26T06:56:24.237Z,42.90
2022-12-26T06:57:24.216Z,37.40
2022-12-26T06:58:24.149Z,37.20
2022-12-26T06:59:24.138Z,35.70
2022-12-26T07:00:24.082Z,38.10
2022-12-26T07:01:24.171Z,37.70
2022-12-26T07:02:24.182Z,37.50
2022-12-26T07:03:23.981Z,43.50
2022-12-26T07:04:23.957Z,41.50
2022-12-26T07:05:23.911Z,38.90
2022-12-26T07:06:23.908Z,38.10
2022-12-26T07:07:23.832Z,39.00
2022-12-26T07:08:23.798Z,36.10
2022-12-26T07:09:27.130Z,41.60
2022-12-26T07:10:24.728Z,35.80
2022-12-26T07:11:23.695Z,29.30
2022-12-26T07:12:23.659Z,34.90
2022-12-26T07:13:23.641Z,40.50
2022-12-26T07:14:23.581Z,34.30
2022-12-26T07:15:23.563Z,36.50
2022-12-26T07:16:23.596Z,32.60
2022-12-26T07:17:23.474Z,38.20
2022-12-26T07:18:23.449Z,39.70
2022-12-26T07:19:23.414Z,38.80
2022-12-26T07:20:23.393Z,43.80
2022-12-26T07:21:23.369Z,36.00
2022-12-26T07:22:23.317Z,43.90
2022-12-26T07:23:23.282Z,33.80
2022-12-26T07:24:23.272Z,31.30
2022-12-26T07:25:23.233Z,33.70
2022-12-26T07:26:23.188Z,37.20
2022-12-26T07:27:23.153Z,30.80
2022-12-26T07:28:23.115Z,36.70
2022-12-26T07:29:23.085Z,28.40
2022-12-26T07:30:23.046Z,30.60
2022-12-26T07:31:23.080Z,31.30
2022-12-26T07:32:22.979Z,31.80
2022-12-26T07:33:22.992Z,30.10
2022-12-26T07:34:27.889Z,30.10
2022-12-26T07:35:23.868Z,29.40
2022-12-26T07:36:22.836Z,33.10
2022-12-26T07:37:22.793Z,26.90
2022-12-26T07:38:22.753Z,31.60
2022-12-26T07:39:22.700Z,26.60
2022-12-26T07:40:22.681Z,29.20
2022-12-26T07:41:22.608Z,31.90
2022-12-26T07:42:22.559Z,31.40
2022-12-26T07:43:22.518Z,28.80
2022-12-26T07:44:22.486Z,24.00
2022-12-26T07:45:22.441Z,26.00
2022-12-26T07:46:22.462Z,24.70
2022-12-26T07:47:22.367Z,26.90
2022-12-26T07:48:22.318Z,25.20
2022-12-26T07:49:22.269Z,20.50
2022-12-26T07:50:22.219Z,25.50
2022-12-26T07:51:22.202Z,27.80
2022-12-26T07:52:22.129Z,26.00
2022-12-26T07:53:22.104Z,21.50
2022-12-26T07:54:22.042Z,24.00
2022-12-26T07:55:22.001Z,26.80
2022-12-26T07:56:21.970Z,21.40
2022-12-26T07:57:47.540Z,20.60
2022-12-26T07:58:22.862Z,21.70
2022-12-26T07:59:21.837Z,23.90
2022-12-26T08:00:21.764Z,25.40
2022-12-26T08:01:21.866Z,28.60
2022-12-26T08:02:21.928Z,25.50
2022-12-26T08:03:21.794Z,25.90
2022-12-26T08:04:21.593Z,23.70
2022-12-26T08:05:21.552Z,26.10
2022-12-26T08:06:21.492Z,25.30
2022-12-26T08:07:21.465Z,26.80
2022-12-26T08:08:21.397Z,27.40
2022-12-26T08:09:21.356Z,23.00
2022-12-26T08:10:21.357Z,25.40
2022-12-26T08:11:21.250Z,26.10
2022-12-26T08:12:21.199Z,27.20
2022-12-26T08:13:21.156Z,25.80
2022-12-26T08:14:21.108Z,32.00
2022-12-26T08:15:21.056Z,25.50
2022-12-26T08:16:21.026Z,24.20
2022-12-26T08:17:21.044Z,25.80
2022-12-26T08:18:20.917Z,21.90
2022-12-26T08:19:20.871Z,26.50
2022-12-26T08:20:20.829Z,24.40
2022-12-26T08:21:20.771Z,26.80
2022-12-26T08:22:20.712Z,24.50
2022-12-26T08:23:20.660Z,24.20
2022-12-26T08:24:20.639Z,25.40
2022-12-26T08:25:22.018Z,24.70
2022-12-26T08:26:20.611Z,25.60
2022-12-26T08:27:20.477Z,20.50
2022-12-26T08:28:20.440Z,22.10
2022-12-26T08:29:20.401Z,19.70
2022-12-26T08:30:20.340Z,23.20
2022-12-26T08:31:20.330Z,23.30
2022-12-26T08:32:20.252Z,22.10
2022-12-26T08:33:20.192Z,22.50
2022-12-26T08:34:20.151Z,22.50
2022-12-26T08:35:20.097Z,23.50
2022-12-26T08:36:20.041Z,22.10
2022-12-26T08:37:20.018Z,24.40
2022-12-26T08:38:19.953Z,26.10
2022-12-26T08:39:19.894Z,25.00
2022-12-26T08:40:41.447Z,22.40
2022-12-26T08:41:20.786Z,20.40
2022-12-26T08:42:19.743Z,23.80
2022-12-26T08:43:34.817Z,21.20
2022-12-26T08:44:28.682Z,21.00
2022-12-26T08:45:20.595Z,24.00
2022-12-26T08:46:19.600Z,18.60
2022-12-26T08:47:19.488Z,22.90
2022-12-26T08:48:19.431Z,24.50
2022-12-26T08:49:19.375Z,20.30
2022-12-26T08:50:19.355Z,20.70
2022-12-26T08:51:19.285Z,23.90
2022-12-26T08:52:19.245Z,22.40
2022-12-26T08:53:19.184Z,21.70
2022-12-26T08:54:19.138Z,19.20
2022-12-26T08:55:19.077Z,19.00
2022-12-26T08:56:19.057Z,23.90
2022-12-26T08:57:18.993Z,21.50
2022-12-26T08:58:18.973Z,18.80
2022-12-26T08:59:18.905Z,20.00
2022-12-26T09:00:18.828Z,20.80
2022-12-26T09:01:18.845Z,20.40
2022-12-26T09:02:18.887Z,15.00
2022-12-26T09:03:18.691Z,17.90
2022-12-26T09:04:18.643Z,15.20
2022-12-26T09:05:18.594Z,17.90
2022-12-26T09:06:18.549Z,23.10
2022-12-26T09:07:18.479Z,19.60
2022-12-26T09:08:18.439Z,20.80
2022-12-26T09:09:18.390Z,24.70
2022-12-26T09:10:18.330Z,23.00
2022-12-26T09:11:18.282Z,24.60
2022-12-26T09:12:18.241Z,28.60
2022-12-26T09:13:18.172Z,34.80
2022-12-26T09:14:18.132Z,34.70
2022-12-26T09:15:18.080Z,33.70
2022-12-26T09:16:18.124Z,31.90
2022-12-26T09:17:18.069Z,31.90
2022-12-26T09:18:17.929Z,32.90
2022-12-26T09:19:17.887Z,37.60
2022-12-26T09:20:17.824Z,37.70
2022-12-26T09:21:17.772Z,37.60
2022-12-26T09:22:17.743Z,37.20
2022-12-26T09:23:17.685Z,39.70
2022-12-26T09:24:17.667Z,37.40
2022-12-26T09:25:17.567Z,26.80
2022-12-26T09:26:17.535Z,40.30
2022-12-26T09:27:17.495Z,43.70
2022-12-26T09:28:17.437Z,38.60
2022-12-26T09:29:17.377Z,42.90
2022-12-26T09:30:17.327Z,39.50
2022-12-26T09:31:17.382Z,32.00
2022-12-26T09:32:17.218Z,42.70
2022-12-26T09:33:17.167Z,44.90
2022-12-26T09:34:17.107Z,45.00
2022-12-26T09:35:17.058Z,41.10
2022-12-26T09:36:16.977Z,33.80
2022-12-26T09:37:16.921Z,45.50
2022-12-26T09:38:16.891Z,39.30
2022-12-26T09:39:16.809Z,42.40
2022-12-26T09:40:16.767Z,31.90
2022-12-26T09:41:16.718Z,40.30
2022-12-26T09:42:16.651Z,43.40
2022-12-26T09:43:16.615Z,41.70
2022-12-26T09:44:16.550Z,37.30
2022-12-26T09:45:16.503Z,40.70
2022-12-26T09:46:16.479Z,37.30
2022-12-26T09:47:16.385Z,31.70
2022-12-26T09:48:16.340Z,32.70
2022-12-26T09:49:16.300Z,39.60
2022-12-26T09:50:16.243Z,37.00
2022-12-26T09:51:16.165Z,38.00
2022-12-26T09:52:16.138Z,46.30
2022-12-26T09:53:16.080Z,42.30
2022-12-26T09:54:16.032Z,28.60
2022-12-26T09:55:15.979Z,35.80
2022-12-26T09:56:37.017Z,31.20
2022-12-26T09:57:16.862Z,39.80
2022-12-26T09:58:15.838Z,38.80
2022-12-26T09:59:15.790Z,32.10
2022-12-26T10:00:15.715Z,36.90
2022-12-26T10:01:15.725Z,38.80
2022-12-26T10:02:15.723Z,39.60
2022-12-26T10:03:15.554Z,40.70
2022-12-26T10:04:15.582Z,37.50
2022-12-26T10:05:15.473Z,40.10
2022-12-26T10:06:15.406Z,42.70
2022-12-26T10:07:15.353Z,50.00
2022-12-26T10:08:15.294Z,40.40
2022-12-26T10:09:15.253Z,48.30
2022-12-26T10:10:15.215Z,48.40
2022-12-26T10:11:15.135Z,41.30
2022-12-26T10:12:15.083Z,50.40
2022-12-26T10:13:15.019Z,49.20
2022-12-26T10:14:19.784Z,36.40
2022-12-26T10:15:15.929Z,41.10
2022-12-26T10:16:14.889Z,38.80
2022-12-26T10:17:14.807Z,37.20
2022-12-26T10:18:14.761Z,42.00
2022-12-26T10:19:14.714Z,44.40
2022-12-26T10:20:14.675Z,39.50
2022-12-26T10:21:14.609Z,38.60
2022-12-26T10:22:14.569Z,36.30
2022-12-26T10:23:14.513Z,43.10
2022-12-26T10:24:14.480Z,47.70
2022-12-26T10:25:14.416Z,44.10
2022-12-26T10:26:14.368Z,43.10
2022-12-26T10:27:14.320Z,41.70
2022-12-26T10:28:14.281Z,45.80
2022-12-26T10:29:14.218Z,45.80
2022-12-26T10:30:14.197Z,44.60
2022-12-26T10:31:14.184Z,46.60
2022-12-26T10:32:14.080Z,45.00
2022-12-26T10:33:14.012Z,59.90
2022-12-26T10:34:13.963Z,61.50
2022-12-26T10:35:13.912Z,56.30
2022-12-26T10:36:13.883Z,32.00
2022-12-26T10:37:13.816Z,34.30
2022-12-26T10:38:13.764Z,39.40
2022-12-26T10:39:13.720Z,32.20
2022-12-26T10:40:13.665Z,33.60
2022-12-26T10:41:13.627Z,34.30
2022-12-26T10:42:13.583Z,35.50
2022-12-26T10:43:13.516Z,26.80
2022-12-26T10:44:13.463Z,25.80
2022-12-26T10:45:13.415Z,32.00
2022-12-26T10:46:13.545Z,25.20
2022-12-26T10:47:13.320Z,17.10
2022-12-26T10:48:13.269Z,23.20
2022-12-26T10:49:13.226Z,26.20
2022-12-26T10:50:13.167Z,17.70
2022-12-26T10:51:13.104Z,20.00
2022-12-26T10:52:13.070Z,34.90
2022-12-26T10:53:13.006Z,24.70
2022-12-26T10:54:12.967Z,27.40
2022-12-26T10:55:29.398Z,39.20
2022-12-26T10:56:18.068Z,30.80
2022-12-26T10:57:12.826Z,19.00
2022-12-26T10:58:12.794Z,24.50
2022-12-26T10:59:12.727Z,31.50
2022-12-26T11:00:12.691Z,29.30
2022-12-26T11:01:12.696Z,21.80
2022-12-26T11:02:12.648Z,19.10
2022-12-26T11:03:12.660Z,15.80
2022-12-26T11:04:12.503Z,16.40
2022-12-26T11:05:22.147Z,16.70
2022-12-26T11:06:13.440Z,19.60
2022-12-26T11:07:12.331Z,18.60
2022-12-26T11:08:12.263Z,19.10
2022-12-26T11:09:12.211Z,19.40
2022-12-26T11:10:12.169Z,14.80
2022-12-26T11:11:12.110Z,21.60
2022-12-26T11:12:12.062Z,22.50
2022-12-26T11:13:12.030Z,21.10
2022-12-26T11:14:11.963Z,22.30
2022-12-26T11:15:11.903Z,18.30
2022-12-26T11:16:11.923Z,17.40
2022-12-26T11:17:11.799Z,19.30
2022-12-26T11:18:11.787Z,17.90
2022-12-26T11:19:11.675Z,17.20
2022-12-26T11:20:11.629Z,15.40
2022-12-26T11:21:12.935Z,19.20
2022-12-26T11:22:11.517Z,19.20
2022-12-26T11:23:11.473Z,18.40
2022-12-26T11:24:11.408Z,16.50
2022-12-26T11:25:11.358Z,18.70
2022-12-26T11:26:11.307Z,17.60
2022-12-26T11:27:12.804Z,15.90
2022-12-26T11:28:11.207Z,13.40
2022-12-26T11:29:11.127Z,19.70
2022-12-26T11:30:11.118Z,15.90
2022-12-26T11:31:11.044Z,14.00
2022-12-26T11:32:10.960Z,14.00
2022-12-26T11:33:14.460Z,15.80
2022-12-26T11:34:10.878Z,18.10
2022-12-26T11:35:10.808Z,19.30
2022-12-26T11:36:10.769Z,16.50
2022-12-26T11:37:10.700Z,17.30
2022-12-26T11:38:10.652Z,18.30
2022-12-26T11:39:10.609Z,22.40
2022-12-26T11:40:10.539Z,17.20
2022-12-26T11:41:10.481Z,21.10
2022-12-26T11:42:10.448Z,19.40
2022-12-26T11:43:10.393Z,17.00
2022-12-26T11:44:10.352Z,17.30
2022-12-26T11:45:10.295Z,16.50
2022-12-26T11:46:10.255Z,15.00
2022-12-26T11:47:10.169Z,21.20
2022-12-26T11:48:10.132Z,19.80
2022-12-26T11:49:10.092Z,13.50
2022-12-26T11:50:10.064Z,16.40
2022-12-26T11:51:09.954Z,18.10
2022-12-26T11:52:09.915Z,18.80
2022-12-26T11:53:09.864Z,18.40
2022-12-26T11:54:09.814Z,19.30
2022-12-26T11:55:09.764Z,16.50
2022-12-26T11:56:09.722Z,22.00
2022-12-26T11:57:09.656Z,19.50
2022-12-26T11:58:09.689Z,20.80
2022-12-26T11:59:09.555Z,21.60
2022-12-26T12:00:09.515Z,24.20
2022-12-26T12:01:09.478Z,23.00
2022-12-26T12:02:09.426Z,17.50
2022-12-26T12:03:09.361Z,21.90
2022-12-26T12:04:09.295Z,19.00
2022-12-26T12:05:09.254Z,21.50
2022-12-26T12:06:09.190Z,20.40
2022-12-26T12:07:09.127Z,16.10
2022-12-26T12:08:09.067Z,15.90
2022-12-26T12:09:09.008Z,18.30
2022-12-26T12:10:08.998Z,21.90
2022-12-26T12:11:08.908Z,20.20
2022-12-26T12:12:08.859Z,25.10
2022-12-26T12:13:08.809Z,21.00
2022-12-26T12:14:08.752Z,21.90
2022-12-26T12:15:08.698Z,22.70
2022-12-26T12:16:08.705Z,25.20
2022-12-26T12:17:08.603Z,15.70
2022-12-26T12:18:08.585Z,20.20
2022-12-26T12:19:08.509Z,18.10
2022-12-26T12:20:08.465Z,20.00
2022-12-26T12:21:08.430Z,18.20
2022-12-26T12:22:08.378Z,21.00
2022-12-26T12:23:08.313Z,19.50
2022-12-26T12:24:08.271Z,18.40
2022-12-26T12:25:08.221Z,16.90
2022-12-26T12:26:08.170Z,14.60
2022-12-26T12:27:08.133Z,14.80
2022-12-26T12:28:08.063Z,15.80
2022-12-26T12:29:08.015Z,22.50
2022-12-26T12:30:07.972Z,17.80
2022-12-26T12:31:07.929Z,15.60
2022-12-26T12:32:07.921Z,17.10
2022-12-26T12:33:07.797Z,15.30
2022-12-26T12:34:07.761Z,13.20
2022-12-26T12:35:07.703Z,11.10
2022-12-26T12:36:07.654Z,10.90
2022-12-26T12:37:07.607Z,11.70
2022-12-26T12:38:07.555Z,9.10
2022-12-26T12:39:07.508Z,12.20
2022-12-26T12:40:07.454Z,12.20
2022-12-26T12:41:07.410Z,8.90
2022-12-26T12:42:07.346Z,12.80
2022-12-26T12:43:07.317Z,10.70
2022-12-26T12:44:07.284Z,14.70
2022-12-26T12:45:07.215Z,14.20
2022-12-26T12:46:07.190Z,9.40
2022-12-26T12:47:07.126Z,10.20
2022-12-26T12:48:07.057Z,12.90
2022-12-26T12:49:07.027Z,11.90
2022-12-26T12:50:06.948Z,15.00
2022-12-26T12:51:06.907Z,10.50